Time;durP1;ratioP1;P1;durP2;ratioP2;P2;SDS_P1;SDS_P2;PMS_P1;PMS_P2;Temp;Humidity;BMP_temperature;BMP_pressure;BME280_temperature;BME280_humidity;BME280_pressure;Samples;Min_cycle;Max_cycle;Signal;HPM_P1;HPM_P2
2021/12/26 00:00:16;;;;;;;0.40;0.40;;;6.80;99.90;;;;;;5074762;28;20189;-66
2021/12/26 00:02:42;;;;;;;0.40;0.40;;;6.80;99.90;;;;;;5075023;28;20569;-67
2021/12/26 00:05:08;;;;;;;0.30;0.30;;;6.70;99.90;;;;;;5074739;28;20557;-67
2021/12/26 00:07:34;;;;;;;0.30;0.30;;;6.70;99.90;;;;;;5074901;28;20197;-67
2021/12/26 00:10:01;;;;;;;0.30;0.30;;;6.70;99.90;;;;;;5074540;28;20178;-67
2021/12/26 00:12:26;;;;;;;0.40;0.40;;;6.70;99.90;;;;;;5074704;28;20172;-67
2021/12/26 00:14:52;;;;;;;0.40;0.40;;;6.70;99.90;;;;;;5074516;28;20268;-67
2021/12/26 00:17:18;;;;;;;0.30;0.30;;;6.80;99.90;;;;;;5074699;28;20173;-67
2021/12/26 00:19:44;;;;;;;0.30;0.30;;;6.80;99.90;;;;;;5074307;28;20261;-67
2021/12/26 00:22:09;;;;;;;0.30;0.30;;;6.80;99.90;;;;;;5074638;28;20178;-67
2021/12/26 00:24:35;;;;;;;0.40;0.40;;;6.80;99.90;;;;;;5074736;28;20873;-67
2021/12/26 00:27:01;;;;;;;0.30;0.30;;;6.70;99.60;;;;;;5074383;28;20169;-67
2021/12/26 00:29:27;;;;;;;0.30;0.30;;;6.70;99.70;;;;;;5074305;28;20254;-67
2021/12/26 00:31:52;;;;;;;0.40;0.40;;;6.70;99.90;;;;;;5074434;28;20254;-67
2021/12/26 00:34:18;;;;;;;0.40;0.40;;;6.70;99.90;;;;;;5074341;28;20190;-67
2021/12/26 00:36:44;;;;;;;0.30;0.30;;;6.70;99.90;;;;;;5074364;28;20170;-67
2021/12/26 00:39:10;;;;;;;0.40;0.40;;;6.70;99.90;;;;;;5074012;28;20409;-69
2021/12/26 00:41:39;;;;;;;0.40;0.40;;;6.70;99.90;;;;;;5074000;28;20643;-69
2021/12/26 00:44:06;;;;;;;0.40;0.40;;;6.80;99.90;;;;;;5074056;28;20427;-69
2021/12/26 00:46:32;;;;;;;0.40;0.40;;;6.80;99.90;;;;;;5073987;28;20177;-69
2021/12/26 00:48:58;;;;;;;0.32;0.32;;;6.80;99.90;;;;;;5073799;28;20680;-69
2021/12/26 00:51:23;;;;;;;0.30;0.30;;;6.70;99.90;;;;;;5074147;28;20302;-69
2021/12/26 00:53:49;;;;;;;0.37;0.37;;;6.80;99.90;;;;;;5073816;28;20283;-70
2021/12/26 00:56:17;;;;;;;0.40;0.40;;;6.80;99.90;;;;;;5074074;28;20169;-69
2021/12/26 00:58:43;;;;;;;0.40;0.40;;;6.80;99.90;;;;;;5073666;28;20162;-69
2021/12/26 01:01:09;;;;;;;0.40;0.40;;;6.80;99.90;;;;;;5074034;28;20544;-69
2021/12/26 01:03:35;;;;;;;0.30;0.30;;;6.80;99.90;;;;;;5073864;28;20189;-69
2021/12/26 01:06:01;;;;;;;0.30;0.30;;;6.90;99.90;;;;;;5073726;28;20261;-69
2021/12/26 01:08:30;;;;;;;0.40;0.40;;;6.90;99.90;;;;;;5073428;28;20448;-69
2021/12/26 01:11:14;;;;;;;0.40;0.40;;;6.90;99.80;;;;;;5073781;28;20169;-69
2021/12/26 01:13:40;;;;;;;0.38;0.38;;;6.90;99.90;;;;;;5073693;28;20723;-69
2021/12/26 01:16:10;;;;;;;0.33;0.33;;;6.80;99.90;;;;;;5073562;28;20174;-69
2021/12/26 01:18:38;;;;;;;0.30;0.30;;;6.70;99.90;;;;;;5073621;28;20170;-69
2021/12/26 01:21:17;;;;;;;0.30;0.30;;;6.80;99.90;;;;;;5073598;28;20166;-70
2021/12/26 01:23:49;;;;;;;0.30;0.30;;;6.80;99.90;;;;;;5073704;28;20553;-69
2021/12/26 01:26:15;;;;;;;0.40;0.40;;;6.70;99.90;;;;;;5073453;28;20185;-69
2021/12/26 01:28:40;;;;;;;0.40;0.40;;;6.70;99.90;;;;;;5073337;28;20197;-69
2021/12/26 01:31:07;;;;;;;0.40;0.40;;;6.80;99.90;;;;;;5073867;28;20631;-69
2021/12/26 01:33:33;;;;;;;0.40;0.40;;;6.80;99.90;;;;;;5073349;28;20236;-69
2021/12/26 01:35:59;;;;;;;0.30;0.30;;;6.80;99.90;;;;;;5073373;28;20170;-69
2021/12/26 01:38:25;;;;;;;0.40;0.40;;;6.80;99.90;;;;;;5073325;28;20588;-69
2021/12/26 01:40:55;;;;;;;0.30;0.30;;;6.70;99.90;;;;;;5073509;28;20403;-69
2021/12/26 01:43:27;;;;;;;0.30;0.30;;;6.70;99.90;;;;;;5073620;28;20473;-69
2021/12/26 01:45:54;;;;;;;0.30;0.30;;;6.70;99.80;;;;;;5073569;28;20173;-69
2021/12/26 01:48:21;;;;;;;0.30;0.30;;;6.60;99.90;;;;;;5073219;28;20662;-69
2021/12/26 01:50:49;;;;;;;0.30;0.30;;;6.70;99.90;;;;;;5073542;28;20166;-69
2021/12/26 01:53:15;;;;;;;0.30;0.30;;;6.70;99.90;;;;;;5073331;28;20185;-69
2021/12/26 01:55:44;;;;;;;0.40;0.40;;;6.70;99.90;;;;;;5077234;28;20174;-69
2021/12/26 01:58:17;;;;;;;0.40;0.40;;;6.70;99.90;;;;;;5077282;28;20170;-69
2021/12/26 02:00:48;;;;;;;0.30;0.30;;;6.70;99.90;;;;;;5077126;28;20224;-69
2021/12/26 02:03:14;;;;;;;0.30;0.30;;;6.70;99.90;;;;;;5077356;28;20204;-69
2021/12/26 02:05:40;;;;;;;0.30;0.30;;;6.70;99.90;;;;;;5077103;28;20170;-69
2021/12/26 02:08:06;;;;;;;0.40;0.40;;;6.70;99.90;;;;;;5076972;28;20198;-69
2021/12/26 02:10:32;;;;;;;0.30;0.30;;;6.70;99.90;;;;;;5076967;28;20558;-69
2021/12/26 02:12:58;;;;;;;0.30;0.30;;;6.80;99.90;;;;;;5076914;28;20196;-68
2021/12/26 02:15:24;;;;;;;0.30;0.30;;;6.80;99.90;;;;;;5076921;28;20400;-69
2021/12/26 02:17:50;;;;;;;0.30;0.30;;;6.80;99.90;;;;;;5076794;28;20230;-69
2021/12/26 02:20:22;;;;;;;0.30;0.30;;;6.80;99.90;;;;;;5076841;28;20399;-69
2021/12/26 02:22:55;;;;;;;0.30;0.30;;;6.70;99.90;;;;;;5076814;28;20180;-69
2021/12/26 02:28:16;;;;;;;0.40;0.40;;;6.70;99.80;;;;;;5083376;28;20205;-69
2021/12/26 02:30:42;;;;;;;0.30;0.30;;;6.60;99.90;;;;;;5076854;28;20170;-69
2021/12/26 02:33:11;;;;;;;0.38;0.38;;;6.60;99.90;;;;;;5076656;28;20200;-69
2021/12/26 02:35:37;;;;;;;0.30;0.30;;;6.50;99.90;;;;;;5076735;28;20520;-69
2021/12/26 02:38:04;;;;;;;0.40;0.40;;;6.50;99.90;;;;;;5076555;28;20525;-69
2021/12/26 02:40:30;;;;;;;0.30;0.30;;;6.50;99.90;;;;;;5076648;28;20185;-67
2021/12/26 02:42:56;;;;;;;0.40;0.40;;;6.50;99.90;;;;;;5076417;28;20173;-67
2021/12/26 02:45:21;;;;;;;0.40;0.40;;;6.50;99.90;;;;;;5076378;28;20457;-67
2021/12/26 02:47:49;;;;;;;0.30;0.30;;;6.50;99.90;;;;;;5076319;28;20443;-66
2021/12/26 02:50:19;;;;;;;0.30;0.30;;;6.60;99.90;;;;;;5076011;28;20623;-67
2021/12/26 02:52:46;;;;;;;0.32;0.32;;;6.50;99.90;;;;;;5076187;28;20177;-67
2021/12/26 02:55:13;;;;;;;0.32;0.32;;;6.60;99.90;;;;;;5076186;28;20169;-67
2021/12/26 02:57:39;;;;;;;0.30;0.30;;;6.60;99.90;;;;;;5076224;28;20268;-67
2021/12/26 03:00:08;;;;;;;0.32;0.32;;;6.60;99.90;;;;;;5076201;28;20216;-67
2021/12/26 03:02:34;;;;;;;0.30;0.30;;;6.60;99.90;;;;;;5076478;28;20174;-66
2021/12/26 03:05:03;;;;;;;0.40;0.40;;;6.60;99.90;;;;;;5075898;28;20196;-67
2021/12/26 03:07:28;;;;;;;0.40;0.40;;;6.50;99.90;;;;;;5075927;28;20200;-67
2021/12/26 03:09:59;;;;;;;0.37;0.37;;;6.50;99.90;;;;;;5075889;28;20175;-67
2021/12/26 03:12:26;;;;;;;0.30;0.30;;;6.50;99.90;;;;;;5076142;28;20166;-67
2021/12/26 03:14:52;;;;;;;0.30;0.30;;;6.50;99.90;;;;;;5075701;28;20281;-67
2021/12/26 03:17:17;;;;;;;0.30;0.30;;;6.60;99.90;;;;;;5075784;28;20245;-67
2021/12/26 03:19:43;;;;;;;0.30;0.30;;;6.60;99.90;;;;;;5075699;28;20162;-67
2021/12/26 03:22:09;;;;;;;0.40;0.40;;;6.50;99.80;;;;;;5075889;28;20226;-67
2021/12/26 03:24:37;;;;;;;0.40;0.40;;;6.40;99.90;;;;;;5075574;28;20185;-67
2021/12/26 03:27:05;;;;;;;0.40;0.40;;;6.40;99.90;;;;;;5075708;28;20162;-66
2021/12/26 03:29:31;;;;;;;0.40;0.40;;;6.50;99.90;;;;;;5075314;28;20596;-67
2021/12/26 03:31:57;;;;;;;0.30;0.30;;;6.50;99.90;;;;;;5075501;28;20174;-67
2021/12/26 03:34:23;;;;;;;0.40;0.40;;;6.50;99.90;;;;;;5075541;28;20705;-67
2021/12/26 03:36:52;;;;;;;0.40;0.40;;;6.50;99.90;;;;;;5075379;28;20178;-67
2021/12/26 03:39:18;;;;;;;0.30;0.30;;;6.50;99.90;;;;;;5075172;28;20403;-66
2021/12/26 03:41:45;;;;;;;0.30;0.30;;;6.50;99.90;;;;;;5075456;28;20185;-67
2021/12/26 03:44:11;;;;;;;0.30;0.30;;;6.60;99.90;;;;;;5075462;28;20601;-66
2021/12/26 03:46:37;;;;;;;0.30;0.30;;;6.50;99.90;;;;;;5075605;28;20178;-67
2021/12/26 03:49:05;;;;;;;0.40;0.40;;;6.50;99.90;;;;;;5074974;28;20555;-67
2021/12/26 03:51:33;;;;;;;0.35;0.35;;;6.50;99.90;;;;;;5075241;28;20193;-67
2021/12/26 03:53:59;;;;;;;0.40;0.40;;;6.60;99.90;;;;;;5074916;28;20189;-67
2021/12/26 03:56:25;;;;;;;0.30;0.30;;;6.50;99.90;;;;;;5074935;28;20166;-66
2021/12/26 03:58:51;;;;;;;0.40;0.40;;;6.50;99.90;;;;;;5074629;28;20192;-67
2021/12/26 04:01:17;;;;;;;0.30;0.30;;;6.60;99.90;;;;;;5075205;28;20427;-67
2021/12/26 04:03:42;;;;;;;0.35;0.35;;;6.50;99.90;;;;;;5075080;28;20568;-66
2021/12/26 04:06:08;;;;;;;0.40;0.40;;;6.50;99.90;;;;;;5074853;28;20170;-67
2021/12/26 04:08:34;;;;;;;0.30;0.30;;;6.60;99.90;;;;;;5074641;28;20193;-67
2021/12/26 04:11:00;;;;;;;0.40;0.40;;;6.60;99.90;;;;;;5074916;28;20396;-67
2021/12/26 04:13:26;;;;;;;0.40;0.40;;;6.60;99.90;;;;;;5074630;28;20760;-66
2021/12/26 04:15:51;;;;;;;0.40;0.40;;;6.60;99.90;;;;;;5074584;28;20169;-66
2021/12/26 04:18:17;;;;;;;0.30;0.30;;;6.60;99.90;;;;;;5074028;28;20551;-66
2021/12/26 04:20:43;;;;;;;0.30;0.30;;;6.60;99.90;;;;;;5074713;28;20696;-67
2021/12/26 04:23:08;;;;;;;0.30;0.30;;;6.60;99.90;;;;;;5074514;28;20233;-67
2021/12/26 04:25:34;;;;;;;0.40;0.40;;;6.60;99.90;;;;;;5074366;28;20256;-67
2021/12/26 04:28:00;;;;;;;0.30;0.30;;;6.60;99.90;;;;;;5074102;28;20219;-67
2021/12/26 04:30:26;;;;;;;0.30;0.30;;;6.60;99.90;;;;;;5074372;28;20169;-67
2021/12/26 04:32:52;;;;;;;0.30;0.30;;;6.50;99.90;;;;;;5074309;28;20166;-66
2021/12/26 04:35:19;;;;;;;0.40;0.40;;;6.60;99.90;;;;;;5074251;28;20663;-67
2021/12/26 04:37:45;;;;;;;0.30;0.30;;;6.60;99.90;;;;;;5073099;28;20181;-67
2021/12/26 04:40:13;;;;;;;0.30;0.30;;;6.60;99.90;;;;;;5074128;28;20536;-66
2021/12/26 04:42:41;;;;;;;0.30;0.30;;;6.60;99.90;;;;;;5074003;28;20204;-67
2021/12/26 04:45:08;;;;;;;0.30;0.30;;;6.50;99.90;;;;;;5074058;28;20191;-67
2021/12/26 04:47:35;;;;;;;0.30;0.30;;;6.60;99.90;;;;;;5073911;28;20197;-67
2021/12/26 04:50:02;;;;;;;0.40;0.40;;;6.50;99.80;;;;;;5073942;28;20222;-66
2021/12/26 04:52:28;;;;;;;0.30;0.30;;;6.20;99.90;;;;;;5074103;28;20167;-67
2021/12/26 04:54:54;;;;;;;0.30;0.30;;;6.10;99.90;;;;;;5074006;28;20193;-67
2021/12/26 04:57:19;;;;;;;0.30;0.30;;;6.10;99.90;;;;;;5074063;28;20650;-66
2021/12/26 04:59:45;;;;;;;0.30;0.30;;;6.10;99.90;;;;;;5073590;28;20181;-67
2021/12/26 05:02:11;;;;;;;0.30;0.30;;;6.30;99.90;;;;;;5073988;28;20299;-66
2021/12/26 05:04:36;;;;;;;0.30;0.30;;;6.30;99.90;;;;;;5073746;28;20272;-66
2021/12/26 05:07:03;;;;;;;0.30;0.30;;;6.40;99.90;;;;;;5073898;28;20658;-67
2021/12/26 05:09:29;;;;;;;0.30;0.30;;;6.40;99.90;;;;;;5073468;28;20199;-67
2021/12/26 05:11:57;;;;;;;0.30;0.30;;;6.50;99.90;;;;;;5073716;28;20169;-67
2021/12/26 05:14:24;;;;;;;0.40;0.40;;;6.50;99.90;;;;;;5073558;28;20423;-66
2021/12/26 05:16:50;;;;;;;0.30;0.30;;;6.50;99.90;;;;;;5073852;28;20580;-67
2021/12/26 05:19:16;;;;;;;0.30;0.30;;;6.50;99.90;;;;;;5073469;28;20192;-66
2021/12/26 05:21:41;;;;;;;0.30;0.30;;;6.60;99.90;;;;;;5073703;28;20400;-67
2021/12/26 05:24:07;;;;;;;0.30;0.30;;;6.50;99.90;;;;;;5073645;28;20427;-67
2021/12/26 05:26:32;;;;;;;0.30;0.30;;;6.60;99.90;;;;;;5073703;28;20628;-66
2021/12/26 05:28:58;;;;;;;0.40;0.40;;;6.60;99.90;;;;;;5072412;28;20667;-66
2021/12/26 05:31:24;;;;;;;0.40;0.40;;;6.60;99.90;;;;;;5073554;28;20696;-66
2021/12/26 05:33:49;;;;;;;0.30;0.30;;;6.50;99.90;;;;;;5073439;28;20737;-66
2021/12/26 05:36:15;;;;;;;0.30;0.30;;;6.50;99.90;;;;;;5073425;28;20169;-67
2021/12/26 05:38:40;;;;;;;0.40;0.40;;;6.50;99.90;;;;;;5073097;28;20202;-67
2021/12/26 05:41:06;;;;;;;0.40;0.40;;;6.50;99.90;;;;;;5073564;28;20176;-67
2021/12/26 05:43:32;;;;;;;0.40;0.40;;;6.50;99.90;;;;;;5073225;28;20185;-67
2021/12/26 05:45:58;;;;;;;0.40;0.40;;;6.50;99.90;;;;;;5073414;28;20226;-67
2021/12/26 05:48:24;;;;;;;0.40;0.40;;;6.50;99.90;;;;;;5073351;28;20201;-67
2021/12/26 05:50:52;;;;;;;0.30;0.30;;;6.50;99.90;;;;;;5073553;28;20165;-67
2021/12/26 05:53:18;;;;;;;0.30;0.30;;;6.50;99.90;;;;;;5073555;28;20189;-66
2021/12/26 05:55:44;;;;;;;0.30;0.30;;;6.50;99.90;;;;;;5073406;28;20252;-67
2021/12/26 05:58:10;;;;;;;0.40;0.40;;;6.50;99.90;;;;;;5073211;28;20174;-67
2021/12/26 06:00:36;;;;;;;0.37;0.37;;;6.50;99.90;;;;;;5073213;28;20235;-67
2021/12/26 06:03:02;;;;;;;0.37;0.37;;;6.60;99.90;;;;;;5073206;28;20189;-67
2021/12/26 06:05:27;;;;;;;0.30;0.30;;;6.50;99.90;;;;;;5073070;28;20252;-66
2021/12/26 06:07:53;;;;;;;0.30;0.30;;;6.50;99.90;;;;;;5073287;28;20285;-67
2021/12/26 06:10:19;;;;;;;0.30;0.30;;;6.50;99.90;;;;;;5073078;28;20165;-67
2021/12/26 06:12:45;;;;;;;0.30;0.30;;;6.50;99.90;;;;;;5073200;28;20253;-67
2021/12/26 06:15:12;;;;;;;0.30;0.30;;;6.50;99.90;;;;;;5073035;28;20252;-67
2021/12/26 06:17:38;;;;;;;0.40;0.40;;;6.50;99.90;;;;;;5073144;28;20253;-67
2021/12/26 06:20:05;;;;;;;0.30;0.30;;;6.50;99.90;;;;;;5072735;28;20310;-67
2021/12/26 06:22:31;;;;;;;0.40;0.40;;;6.40;99.90;;;;;;5073555;28;20172;-67
2021/12/26 06:24:56;;;;;;;0.30;0.30;;;6.50;99.90;;;;;;5072846;28;20201;-67
2021/12/26 06:27:22;;;;;;;0.30;0.30;;;6.50;99.90;;;;;;5071650;28;20248;-67
2021/12/26 06:29:48;;;;;;;0.30;0.30;;;6.50;99.90;;;;;;5072856;28;20181;-67
2021/12/26 06:32:14;;;;;;;0.30;0.30;;;6.50;99.90;;;;;;5073182;28;20174;-67
2021/12/26 06:34:39;;;;;;;0.30;0.30;;;6.40;99.90;;;;;;5072963;28;20303;-67
2021/12/26 06:37:05;;;;;;;0.30;0.30;;;6.50;99.90;;;;;;5072783;28;20400;-66
2021/12/26 06:39:31;;;;;;;0.40;0.40;;;6.40;99.90;;;;;;5073037;28;20306;-67
2021/12/26 06:41:56;;;;;;;0.30;0.30;;;6.50;99.90;;;;;;5076750;28;20205;-67
2021/12/26 06:44:23;;;;;;;0.30;0.30;;;6.40;99.90;;;;;;5076434;28;20558;-67
2021/12/26 06:46:48;;;;;;;0.30;0.30;;;6.50;99.90;;;;;;5076545;28;20539;-67
2021/12/26 06:49:17;;;;;;;0.30;0.30;;;6.40;99.90;;;;;;5076072;28;20208;-67
2021/12/26 06:51:45;;;;;;;0.30;0.30;;;6.40;99.90;;;;;;5076221;28;20258;-67
2021/12/26 06:54:11;;;;;;;0.40;0.40;;;6.40;99.80;;;;;;5076126;28;20181;-67
2021/12/26 06:56:36;;;;;;;0.30;0.30;;;6.30;99.90;;;;;;5076373;28;20341;-67
2021/12/26 06:59:02;;;;;;;0.33;0.33;;;6.40;99.90;;;;;;5075851;28;20432;-66
2021/12/26 07:01:28;;;;;;;0.30;0.30;;;6.40;99.90;;;;;;5076190;28;20170;-67
2021/12/26 07:03:54;;;;;;;0.30;0.30;;;6.40;99.90;;;;;;5076170;28;20195;-67
2021/12/26 07:06:20;;;;;;;0.30;0.30;;;6.40;99.90;;;;;;5075944;28;20227;-66
2021/12/26 07:08:46;;;;;;;0.30;0.30;;;6.30;99.90;;;;;;5075773;28;20205;-66
2021/12/26 07:11:11;;;;;;;0.40;0.40;;;6.30;99.90;;;;;;5076109;28;20419;-66
2021/12/26 07:13:37;;;;;;;0.30;0.30;;;6.50;99.90;;;;;;5075889;28;20420;-67
2021/12/26 07:16:03;;;;;;;0.30;0.30;;;6.40;99.90;;;;;;5075827;28;20169;-66
2021/12/26 07:18:28;;;;;;;0.32;0.32;;;6.40;99.90;;;;;;5075665;28;20169;-67
2021/12/26 07:20:54;;;;;;;0.40;0.40;;;6.40;99.90;;;;;;5075911;28;20678;-67
2021/12/26 07:23:20;;;;;;;0.30;0.30;;;6.40;99.90;;;;;;5075657;28;20228;-67
2021/12/26 07:25:46;;;;;;;0.30;0.30;;;6.40;99.90;;;;;;5075684;28;20162;-67
2021/12/26 07:28:11;;;;;;;0.40;0.40;;;6.50;99.90;;;;;;5075680;28;20276;-67
2021/12/26 07:30:37;;;;;;;0.40;0.40;;;6.50;99.90;;;;;;5075690;28;20261;-67
2021/12/26 07:33:03;;;;;;;0.30;0.30;;;6.50;99.90;;;;;;5075422;28;20200;-66
2021/12/26 07:35:29;;;;;;;0.30;0.30;;;6.50;99.70;;;;;;5075435;28;20184;-67
2021/12/26 07:37:54;;;;;;;0.30;0.30;;;6.50;99.70;;;;;;5075645;28;20170;-67
2021/12/26 07:40:21;;;;;;;0.30;0.30;;;6.50;99.70;;;;;;5075427;28;20240;-67
2021/12/26 07:42:47;;;;;;;0.35;0.35;;;6.50;99.80;;;;;;5075351;28;20172;-67
2021/12/26 07:45:12;;;;;;;0.30;0.30;;;6.50;99.90;;;;;;5075339;28;20649;-67
2021/12/26 07:47:39;;;;;;;0.40;0.40;;;6.60;99.90;;;;;;5075311;28;20197;-66
2021/12/26 07:50:05;;;;;;;0.30;0.30;;;6.60;99.50;;;;;;5075021;28;20173;-66
2021/12/26 07:52:36;;;;;;;0.30;0.30;;;6.60;99.40;;;;;;5074653;28;20256;-66
2021/12/26 07:55:03;;;;;;;0.30;0.30;;;6.60;99.50;;;;;;5075182;28;20184;-67
2021/12/26 07:57:29;;;;;;;0.40;0.40;;;6.60;99.60;;;;;;5075151;28;20220;-67
2021/12/26 07:59:55;;;;;;;0.40;0.40;;;6.70;99.60;;;;;;5074847;28;20231;-66
2021/12/26 08:02:21;;;;;;;0.40;0.40;;;6.70;99.60;;;;;;5075075;28;20170;-67
2021/12/26 08:04:47;;;;;;;0.30;0.30;;;6.70;99.50;;;;;;5074999;28;20251;-66
2021/12/26 08:07:13;;;;;;;0.30;0.30;;;6.80;99.50;;;;;;5074876;28;20402;-67
2021/12/26 08:09:39;;;;;;;0.30;0.30;;;6.80;99.60;;;;;;5074583;28;20166;-67
2021/12/26 08:12:05;;;;;;;0.50;0.50;;;6.90;99.40;;;;;;5074814;28;20405;-67
2021/12/26 08:14:30;;;;;;;0.30;0.30;;;6.90;99.40;;;;;;5074434;28;20193;-67
2021/12/26 08:16:56;;;;;;;0.40;0.40;;;7.00;99.50;;;;;;5074556;28;20223;-67
2021/12/26 08:19:22;;;;;;;0.33;0.33;;;7.10;99.40;;;;;;5074644;28;20252;-67
2021/12/26 08:21:51;;;;;;;0.30;0.30;;;7.20;99.30;;;;;;5074639;28;20173;-67
2021/12/26 08:24:17;;;;;;;0.40;0.40;;;7.30;99.00;;;;;;5074663;28;20852;-67
2021/12/26 08:26:42;;;;;;;0.30;0.30;;;7.50;98.80;;;;;;5074557;28;20540;-67
2021/12/26 08:29:08;;;;;;;0.30;0.30;;;7.50;98.30;;;;;;5074248;28;20201;-67
2021/12/26 08:31:34;;;;;;;0.30;0.30;;;7.60;98.30;;;;;;5074496;28;20594;-67
2021/12/26 08:33:59;;;;;;;0.40;0.40;;;7.60;98.10;;;;;;5074229;28;20672;-67
2021/12/26 08:36:25;;;;;;;0.30;0.30;;;7.70;98.20;;;;;;5074270;28;20178;-67
2021/12/26 08:38:51;;;;;;;0.30;0.30;;;7.60;98.20;;;;;;5074019;28;20167;-67
2021/12/26 08:41:16;;;;;;;0.40;0.40;;;7.70;98.10;;;;;;5074264;28;20239;-67
2021/12/26 08:43:43;;;;;;;0.40;0.40;;;7.60;98.20;;;;;;5074079;28;20268;-67
2021/12/26 08:46:10;;;;;;;1.02;1.02;;;7.50;98.20;;;;;;5074040;28;20176;-67
2021/12/26 08:48:36;;;;;;;0.30;0.30;;;7.50;98.40;;;;;;5073824;28;20600;-67
2021/12/26 08:51:02;;;;;;;0.40;0.40;;;7.50;98.50;;;;;;5074187;28;20197;-67
2021/12/26 08:53:28;;;;;;;0.30;0.30;;;7.40;98.60;;;;;;5073937;28;20191;-67
2021/12/26 08:55:57;;;;;;;0.40;0.40;;;7.40;98.60;;;;;;5073882;28;20695;-67
2021/12/26 08:58:23;;;;;;;0.30;0.30;;;7.40;98.50;;;;;;5073819;28;20541;-67
2021/12/26 09:00:49;;;;;;;0.30;0.30;;;7.40;98.60;;;;;;5074024;28;20185;-67
2021/12/26 09:03:15;;;;;;;0.30;0.30;;;7.40;98.80;;;;;;5073866;28;20803;-67
2021/12/26 09:05:41;;;;;;;0.30;0.30;;;7.30;98.80;;;;;;5073745;28;20403;-67
2021/12/26 09:08:10;;;;;;;0.30;0.30;;;7.30;98.90;;;;;;5073556;28;20204;-67
2021/12/26 09:10:39;;;;;;;0.30;0.30;;;7.40;98.90;;;;;;5073804;28;20165;-67
2021/12/26 09:13:07;;;;;;;0.35;0.35;;;7.50;99.10;;;;;;5073724;28;20188;-67
2021/12/26 09:15:33;;;;;;;0.30;0.30;;;7.60;98.70;;;;;;5073608;28;20256;-67
2021/12/26 09:17:59;;;;;;;0.70;0.70;;;7.60;98.60;;;;;;5073438;28;20606;-66
2021/12/26 09:20:26;;;;;;;0.40;0.40;;;7.80;98.50;;;;;;5072408;28;20666;-67
2021/12/26 09:22:52;;;;;;;0.30;0.30;;;7.80;98.60;;;;;;5073578;28;20177;-67
2021/12/26 09:25:18;;;;;;;0.30;0.30;;;8.00;98.00;;;;;;5073521;28;20188;-67
2021/12/26 09:27:43;;;;;;;0.40;0.40;;;8.10;98.10;;;;;;5073532;28;20189;-67
2021/12/26 09:30:11;;;;;;;0.30;0.30;;;8.10;98.20;;;;;;5073291;28;20168;-66
2021/12/26 09:32:38;;;;;;;0.40;0.40;;;8.20;98.00;;;;;;5073474;28;20193;-67
2021/12/26 09:35:04;;;;;;;0.30;0.30;;;8.30;97.90;;;;;;5073336;28;20671;-66
2021/12/26 09:37:30;;;;;;;0.30;0.30;;;8.30;97.70;;;;;;5073487;28;20242;-67
2021/12/26 09:39:56;;;;;;;0.30;0.30;;;8.40;97.80;;;;;;5073493;28;20171;-67
2021/12/26 09:42:24;;;;;;;2.33;2.23;;;8.30;97.50;;;;;;5073517;28;20825;-66
2021/12/26 09:44:50;;;;;;;0.30;0.30;;;8.30;97.60;;;;;;5073245;28;20183;-66
2021/12/26 09:47:15;;;;;;;0.30;0.30;;;8.20;97.70;;;;;;5073435;28;20173;-67
2021/12/26 09:49:41;;;;;;;0.30;0.30;;;8.10;97.80;;;;;;5073328;28;20171;-67
2021/12/26 09:52:07;;;;;;;0.40;0.40;;;8.10;97.80;;;;;;5073326;28;20212;-67
2021/12/26 09:54:33;;;;;;;0.30;0.30;;;8.10;97.80;;;;;;5073028;28;20239;-67
2021/12/26 09:56:59;;;;;;;0.30;0.30;;;8.10;97.90;;;;;;5073104;28;20169;-67
2021/12/26 09:59:27;;;;;;;0.30;0.30;;;8.10;98.20;;;;;;5072960;28;20319;-67
2021/12/26 10:01:56;;;;;;;0.30;0.30;;;8.10;98.30;;;;;;5073193;28;20252;-67
2021/12/26 10:04:31;;;;;;;0.30;0.30;;;8.20;98.20;;;;;;5073261;28;20198;-67
2021/12/26 10:07:03;;;;;;;0.40;0.40;;;8.20;98.00;;;;;;5073340;28;20300;-66
2021/12/26 10:09:30;;;;;;;2.25;1.25;;;8.30;98.10;;;;;;5072787;28;20199;-67
2021/12/26 10:11:58;;;;;;;0.35;0.35;;;8.30;98.00;;;;;;5073002;28;20688;-67
2021/12/26 10:14:29;;;;;;;0.40;0.40;;;8.30;98.00;;;;;;5073200;28;20250;-67
2021/12/26 10:17:05;;;;;;;0.30;0.30;;;8.30;97.90;;;;;;5077057;28;20194;-67
2021/12/26 10:19:36;;;;;;;0.40;0.40;;;8.30;98.00;;;;;;5076713;28;20179;-67
2021/12/26 10:22:04;;;;;;;0.30;0.30;;;8.40;98.20;;;;;;5077255;28;20169;-67
2021/12/26 10:24:33;;;;;;;0.50;0.50;;;8.40;97.90;;;;;;5076988;28;20207;-67
2021/12/26 10:27:07;;;;;;;0.40;0.40;;;8.50;97.80;;;;;;5076653;28;20263;-67
2021/12/26 10:29:45;;;;;;;0.32;0.32;;;8.60;97.80;;;;;;5076713;28;20223;-66
2021/12/26 10:32:10;;;;;;;0.50;0.50;;;8.80;97.80;;;;;;5076852;28;20528;-67
2021/12/26 10:34:39;;;;;;;0.50;0.50;;;8.90;97.50;;;;;;5076496;28;20192;-67
2021/12/26 10:37:21;;;;;;;0.40;0.40;;;8.90;97.20;;;;;;5076586;28;20251;-67
2021/12/26 10:39:55;;;;;;;0.30;0.30;;;9.00;97.00;;;;;;5076577;28;20199;-67
2021/12/26 10:42:30;;;;;;;0.30;0.30;;;9.10;97.00;;;;;;5076570;28;20173;-67
2021/12/26 10:45:05;;;;;;;0.30;0.30;;;9.20;96.80;;;;;;5076487;28;20204;-67
2021/12/26 10:47:33;;;;;;;0.30;0.30;;;9.30;96.60;;;;;;5076282;28;20164;-67
2021/12/26 10:50:03;;;;;;;0.30;0.30;;;9.30;96.40;;;;;;5076077;28;20566;-67
2021/12/26 10:52:34;;;;;;;0.30;0.30;;;9.20;96.60;;;;;;5076252;28;20177;-68
2021/12/26 10:55:00;;;;;;;0.30;0.30;;;9.20;97.10;;;;;;5076106;28;20182;-68
2021/12/26 10:57:29;;;;;;;0.30;0.30;;;9.10;96.90;;;;;;5076315;28;20187;-68
2021/12/26 11:00:01;;;;;;;0.30;0.30;;;9.10;97.10;;;;;;5075874;28;20187;-67
2021/12/26 11:02:30;;;;;;;0.40;0.40;;;9.10;97.20;;;;;;5076153;28;20534;-67
2021/12/26 11:05:03;;;;;;;0.40;0.40;;;9.10;97.20;;;;;;5075992;28;20645;-68
2021/12/26 11:07:37;;;;;;;1.35;0.70;;;9.10;97.10;;;;;;5076076;28;20180;-67
2021/12/26 11:10:07;;;;;;;0.30;0.30;;;9.10;97.10;;;;;;5075789;28;20170;-67
2021/12/26 11:12:43;;;;;;;0.30;0.30;;;9.00;97.30;;;;;;5075952;28;20259;-67
2021/12/26 11:15:10;;;;;;;0.40;0.40;;;9.10;97.40;;;;;;5075998;28;20516;-68
2021/12/26 11:17:39;;;;;;;0.30;0.30;;;9.30;97.40;;;;;;5075931;28;20176;-67
2021/12/26 11:20:06;;;;;;;0.40;0.40;;;9.30;97.20;;;;;;5075783;28;20188;-67
2021/12/26 11:22:32;;;;;;;0.30;0.30;;;9.40;97.10;;;;;;5075652;28;20176;-68
2021/12/26 11:24:58;;;;;;;0.40;0.40;;;9.40;96.80;;;;;;5075607;28;20192;-68
2021/12/26 11:27:27;;;;;;;0.55;0.55;;;9.40;97.00;;;;;;5074351;28;20219;-67
2021/12/26 11:29:53;;;;;;;0.30;0.30;;;9.50;97.10;;;;;;5075522;28;20173;-67
2021/12/26 11:32:24;;;;;;;0.30;0.30;;;9.70;97.10;;;;;;5075769;28;20244;-68
2021/12/26 11:34:50;;;;;;;0.30;0.30;;;9.80;96.50;;;;;;5075630;28;20190;-68
2021/12/26 11:37:17;;;;;;;0.47;0.47;;;9.90;96.00;;;;;;5075918;28;20180;-68
2021/12/26 11:39:44;;;;;;;0.35;0.35;;;10.00;95.70;;;;;;5075287;28;20694;-67
2021/12/26 11:42:54;;;;;;;0.30;0.30;;;10.10;95.60;;;;;;5075607;28;20646;-68
2021/12/26 11:45:49;;;;;;;0.30;0.30;;;10.20;95.30;;;;;;5075263;28;20169;-68
2021/12/26 11:48:55;;;;;;;0.30;0.30;;;10.40;95.20;;;;;;5075085;28;20210;-67
2021/12/26 11:51:28;;;;;;;0.30;0.30;;;10.50;94.90;;;;;;5075320;28;20246;-68
2021/12/26 11:54:33;;;;;;;0.30;0.30;;;10.60;95.00;;;;;;5075294;28;20238;-67
2021/12/26 11:57:21;;;;;;;0.30;0.30;;;10.50;93.90;;;;;;5075177;28;20192;-67
2021/12/26 12:00:16;;;;;;;0.40;0.40;;;10.30;94.80;;;;;;5074702;28;20543;-67
2021/12/26 12:02:46;;;;;;;0.30;0.30;;;10.20;95.30;;;;;;5075119;28;20177;-68
2021/12/26 12:05:20;;;;;;;0.30;0.30;;;10.20;95.40;;;;;;5075026;28;20166;-68
2021/12/26 12:08:01;;;;;;;0.40;0.40;;;10.10;95.30;;;;;;5074996;28;20193;-67
2021/12/26 12:10:41;;;;;;;0.30;0.30;;;10.00;95.50;;;;;;5074988;28;20168;-68
2021/12/26 12:13:22;;;;;;;0.30;0.30;;;9.80;96.40;;;;;;5074742;28;20184;-68
2021/12/26 12:15:52;;;;;;;0.40;0.40;;;9.60;96.60;;;;;;5074821;28;20206;-68
2021/12/26 12:18:26;;;;;;;0.85;0.85;;;9.50;97.50;;;;;;5074658;28;20168;-68
2021/12/26 12:21:18;;;;;;;0.30;0.30;;;9.40;97.60;;;;;;5075036;28;20177;-68
2021/12/26 12:24:09;;;;;;;0.30;0.30;;;9.50;97.60;;;;;;5074675;28;20215;-67
2021/12/26 12:26:49;;;;;;;0.40;0.40;;;9.50;97.70;;;;;;5074558;28;20177;-68
2021/12/26 12:29:29;;;;;;;0.30;0.30;;;9.50;97.60;;;;;;5074184;28;20258;-68
2021/12/26 12:32:07;;;;;;;1.50;1.40;;;9.50;97.60;;;;;;5074407;28;20177;-67
2021/12/26 12:35:06;;;;;;;0.30;0.30;;;9.50;97.50;;;;;;5074177;28;20204;-67
2021/12/26 12:37:34;;;;;;;0.30;0.30;;;9.30;97.40;;;;;;5074215;28;20233;-67
2021/12/26 12:40:06;;;;;;;0.30;0.30;;;9.20;97.60;;;;;;5074119;28;20168;-67
2021/12/26 12:42:33;;;;;;;0.30;0.30;;;9.10;97.70;;;;;;5074229;28;20583;-67
2021/12/26 12:45:00;;;;;;;0.30;0.30;;;9.00;97.90;;;;;;5074038;28;20276;-68
2021/12/26 12:47:26;;;;;;;0.30;0.30;;;8.90;98.20;;;;;;5074239;28;20180;-67
2021/12/26 12:49:55;;;;;;;0.30;0.30;;;8.80;98.30;;;;;;5073815;28;20177;-67
2021/12/26 12:52:43;;;;;;;0.30;0.30;;;8.70;98.40;;;;;;5073980;28;20193;-67
2021/12/26 12:55:21;;;;;;;0.40;0.40;;;8.70;98.70;;;;;;5074110;28;20182;-67
2021/12/26 12:57:49;;;;;;;0.30;0.30;;;8.70;98.70;;;;;;5074131;28;20314;-67
2021/12/26 13:00:39;;;;;;;0.30;0.30;;;8.60;98.50;;;;;;5073588;28;20193;-67
2021/12/26 13:03:04;;;;;;;0.32;0.32;;;8.50;98.60;;;;;;5073331;28;20227;-68
2021/12/26 13:05:34;;;;;;;0.40;0.40;;;8.40;98.60;;;;;;5073736;28;20235;-67